createdAt,value
2017-09-27T00:01:14.479Z,94.46
2017-09-27T00:03:42.819Z,94.50
2017-09-27T00:06:11.160Z,94.67
2017-09-27T00:08:39.527Z,94.58
2017-09-27T00:11:07.878Z,94.27
2017-09-27T00:13:36.219Z,93.71
2017-09-27T00:16:04.570Z,93.31
2017-09-27T00:18:32.900Z,93.64
2017-09-27T00:21:01.500Z,94.03
2017-09-27T00:23:29.872Z,93.70
2017-09-27T00:25:58.241Z,93.92
2017-09-27T00:28:26.588Z,93.90
2017-09-27T00:30:54.950Z,93.76
2017-09-27T00:33:23.297Z,93.29
2017-09-27T00:35:51.663Z,93.75
2017-09-27T00:38:20.027Z,93.18
2017-09-27T00:40:48.370Z,93.36
2017-09-27T00:43:16.712Z,93.39
2017-09-27T00:45:45.051Z,93.07
2017-09-27T00:48:13.392Z,93.18
2017-09-27T00:50:41.910Z,93.35
2017-09-27T00:53:10.243Z,93.56
2017-09-27T00:55:38.582Z,93.95
2017-09-27T00:58:06.955Z,94.06
2017-09-27T01:00:35.318Z,94.27
2017-09-27T01:03:03.692Z,94.25
2017-09-27T01:05:32.037Z,94.37
2017-09-27T01:08:00.562Z,93.85
2017-09-27T01:10:28.902Z,93.63
2017-09-27T01:12:57.246Z,93.71
2017-09-27T01:15:25.590Z,94.01
2017-09-27T01:17:53.930Z,93.97
2017-09-27T01:20:22.406Z,94.04
2017-09-27T01:22:50.750Z,94.35
2017-09-27T01:25:19.094Z,94.44
2017-09-27T01:27:47.430Z,94.34
2017-09-27T01:30:15.794Z,94.06
2017-09-27T01:32:44.139Z,93.63
2017-09-27T01:35:12.479Z,93.89
2017-09-27T01:37:40.874Z,94.04
2017-09-27T01:40:09.211Z,94.57
2017-09-27T01:42:37.551Z,94.06
2017-09-27T01:45:05.915Z,93.89
2017-09-27T01:47:34.261Z,93.30
2017-09-27T01:50:02.847Z,93.65
2017-09-27T01:52:31.186Z,93.91
2017-09-27T01:54:59.549Z,93.98
2017-09-27T01:57:28.366Z,94.08
2017-09-27T01:59:56.707Z,94.20
2017-09-27T02:02:25.063Z,94.04
2017-09-27T02:04:53.396Z,94.27
2017-09-27T02:07:21.759Z,94.60
2017-09-27T02:09:50.098Z,94.40
2017-09-27T02:12:18.470Z,94.78
2017-09-27T02:14:46.839Z,94.64
2017-09-27T02:17:15.190Z,94.73
2017-09-27T02:19:43.667Z,94.98
2017-09-27T02:22:12.006Z,94.90
2017-09-27T02:24:40.353Z,95.16
2017-09-27T02:27:08.687Z,95.22
2017-09-27T02:29:37.023Z,94.94
2017-09-27T02:32:05.366Z,94.95
2017-09-27T02:34:33.791Z,94.70
2017-09-27T02:37:02.126Z,94.07
2017-09-27T02:39:30.592Z,94.32
2017-09-27T02:41:58.930Z,94.30
2017-09-27T02:44:27.271Z,94.43
2017-09-27T02:46:55.612Z,94.48
2017-09-27T02:49:23.951Z,94.40
2017-09-27T02:51:52.312Z,94.17
2017-09-27T02:54:20.655Z,94.35
2017-09-27T02:56:49.017Z,94.13
2017-09-27T02:59:17.383Z,94.19
2017-09-27T03:01:46.183Z,94.20
2017-09-27T03:04:14.526Z,94.58
2017-09-27T03:06:42.862Z,95.03
2017-09-27T03:09:11.234Z,94.42
2017-09-27T03:11:39.570Z,94.52
2017-09-27T03:14:07.942Z,95.34
2017-09-27T03:16:36.279Z,95.22
2017-09-27T03:19:04.618Z,95.74
2017-09-27T03:21:33.014Z,95.53
2017-09-27T03:24:01.354Z,95.73
2017-09-27T03:26:29.687Z,95.97
2017-09-27T03:28:58.039Z,95.73
2017-09-27T03:31:26.562Z,95.84
2017-09-27T03:33:54.911Z,96.33
2017-09-27T03:36:23.251Z,95.84
2017-09-27T03:38:51.587Z,96.06
2017-09-27T03:41:19.935Z,96.11
2017-09-27T03:43:48.403Z,95.52
2017-09-27T03:46:16.743Z,95.41
2017-09-27T03:48:45.086Z,95.65
2017-09-27T03:51:13.418Z,95.83
2017-09-27T03:53:41.792Z,95.97
2017-09-27T03:56:10.158Z,96.23
2017-09-27T03:58:38.526Z,95.93
2017-09-27T04:01:06.862Z,95.62
2017-09-27T04:03:35.328Z,95.69
2017-09-27T04:06:04.561Z,95.64
2017-09-27T04:08:32.912Z,95.61
2017-09-27T04:11:02.018Z,95.59
2017-09-27T04:13:30.415Z,95.73
2017-09-27T04:15:58.755Z,95.75
2017-09-27T04:18:27.090Z,95.87
2017-09-27T04:20:55.562Z,95.75
2017-09-27T04:23:23.898Z,95.72
2017-09-27T04:25:52.252Z,95.41
2017-09-27T04:28:20.590Z,95.48
2017-09-27T04:30:48.931Z,95.07
2017-09-27T04:33:17.298Z,94.34
2017-09-27T04:35:45.653Z,93.85
2017-09-27T04:38:13.999Z,94.21
2017-09-27T04:40:42.342Z,93.85
2017-09-27T04:43:10.906Z,94.33
2017-09-27T04:45:39.466Z,94.40
2017-09-27T04:48:07.811Z,94.80
2017-09-27T04:50:36.150Z,94.89
2017-09-27T04:53:04.527Z,95.19
2017-09-27T04:55:32.902Z,95.12
2017-09-27T04:58:01.239Z,95.18
2017-09-27T05:00:29.605Z,94.93
2017-09-27T05:02:57.938Z,95.13
2017-09-27T05:05:26.313Z,93.88
2017-09-27T05:07:54.659Z,93.86
2017-09-27T05:10:23.018Z,93.96
2017-09-27T05:12:51.368Z,94.04
2017-09-27T05:15:19.714Z,94.23
2017-09-27T05:17:48.061Z,94.42
2017-09-27T05:20:16.424Z,94.78
2017-09-27T05:22:44.764Z,94.95
2017-09-27T05:25:13.098Z,95.35
2017-09-27T05:27:41.439Z,95.24
2017-09-27T05:30:09.782Z,95.39
2017-09-27T05:32:38.135Z,94.39
2017-09-27T05:35:06.465Z,94.60
2017-09-27T05:37:34.815Z,94.51
2017-09-27T05:40:03.162Z,94.46
2017-09-27T05:42:31.510Z,93.41
2017-09-27T05:44:59.847Z,93.68
2017-09-27T05:47:28.212Z,93.32
2017-09-27T05:49:56.557Z,93.39
2017-09-27T05:52:24.918Z,93.84
2017-09-27T05:54:53.290Z,93.89
2017-09-27T05:57:21.631Z,93.08
2017-09-27T05:59:50.016Z,92.80
2017-09-27T06:02:18.487Z,92.97
2017-09-27T06:04:46.829Z,93.19
2017-09-27T06:07:15.169Z,93.55
2017-09-27T06:09:43.554Z,93.68
2017-09-27T06:12:11.887Z,92.77
2017-09-27T06:14:40.231Z,93.01
2017-09-27T06:17:08.567Z,93.34
2017-09-27T06:19:36.931Z,93.75
2017-09-27T06:22:05.309Z,93.89
2017-09-27T06:24:33.645Z,92.84
2017-09-27T06:27:02.123Z,91.74
2017-09-27T06:29:30.518Z,91.33
2017-09-27T06:31:58.862Z,90.97
2017-09-27T06:34:27.211Z,91.62
2017-09-27T06:36:55.561Z,91.40
2017-09-27T06:39:23.903Z,90.60
2017-09-27T06:41:52.246Z,90.18
2017-09-27T06:44:20.718Z,90.50
2017-09-27T06:46:49.068Z,89.47
2017-09-27T06:49:17.423Z,89.40
2017-09-27T06:51:45.767Z,88.94
2017-09-27T06:54:14.899Z,88.84
2017-09-27T06:56:43.280Z,88.03
2017-09-27T06:59:11.768Z,87.76
2017-09-27T07:01:40.110Z,88.44
2017-09-27T07:04:08.464Z,88.20
2017-09-27T07:06:36.803Z,87.56
2017-09-27T07:09:05.151Z,87.17
2017-09-27T07:11:33.525Z,87.07
2017-09-27T07:14:01.874Z,87.04
2017-09-27T07:16:30.214Z,87.26
2017-09-27T07:18:58.590Z,86.45
2017-09-27T07:21:26.962Z,86.52
2017-09-27T07:23:55.317Z,87.31
2017-09-27T07:26:23.690Z,86.85
2017-09-27T07:28:52.039Z,86.67
2017-09-27T07:31:20.378Z,87.10
2017-09-27T07:33:48.842Z,85.68
2017-09-27T07:36:17.212Z,83.23
2017-09-27T07:38:45.579Z,82.51
2017-09-27T07:41:13.935Z,82.03
2017-09-27T07:43:42.310Z,81.60
2017-09-27T07:46:10.660Z,81.23
2017-09-27T07:48:39.030Z,80.74
2017-09-27T07:51:07.511Z,80.01
2017-09-27T07:53:35.861Z,78.85
2017-09-27T07:56:04.207Z,78.61
2017-09-27T07:58:32.554Z,77.64
2017-09-27T08:01:00.918Z,78.34
2017-09-27T08:03:29.263Z,78.28
2017-09-27T08:05:57.612Z,78.65
2017-09-27T08:08:25.984Z,78.51
2017-09-27T08:10:54.362Z,77.67
2017-09-27T08:13:22.832Z,76.17
2017-09-27T08:15:51.174Z,73.35
2017-09-27T08:18:19.519Z,73.01
2017-09-27T08:20:47.910Z,71.27
2017-09-27T08:23:16.255Z,70.93
2017-09-27T08:25:44.600Z,71.15
2017-09-27T08:28:12.947Z,70.07
2017-09-27T08:30:41.294Z,69.42
2017-09-27T08:33:09.689Z,69.17
2017-09-27T08:35:38.063Z,69.75
2017-09-27T08:38:06.415Z,71.00
2017-09-27T08:40:34.759Z,71.42
2017-09-27T08:43:03.128Z,71.96
2017-09-27T08:45:31.480Z,68.80
2017-09-27T08:47:59.827Z,68.24
2017-09-27T08:50:28.198Z,66.06
2017-09-27T08:52:56.569Z,65.81
2017-09-27T08:55:24.922Z,63.20
2017-09-27T08:57:53.295Z,60.60
2017-09-27T09:00:21.641Z,57.59
2017-09-27T09:02:50.011Z,53.79
2017-09-27T09:05:18.363Z,52.03
2017-09-27T09:07:46.711Z,51.24
2017-09-27T09:10:15.083Z,50.19
2017-09-27T09:12:43.428Z,50.56
2017-09-27T09:15:11.774Z,52.55
2017-09-27T09:17:40.126Z,50.94
2017-09-27T09:20:08.475Z,48.24
2017-09-27T09:22:36.874Z,46.84
2017-09-27T09:25:05.222Z,46.94
2017-09-27T09:27:33.565Z,47.72
2017-09-27T09:30:01.918Z,49.20
2017-09-27T09:32:30.271Z,49.02
2017-09-27T09:34:58.623Z,47.22
2017-09-27T09:37:26.994Z,46.32
2017-09-27T09:39:55.390Z,46.92
2017-09-27T09:42:23.758Z,50.55
2017-09-27T09:44:52.110Z,54.49
2017-09-27T09:47:20.494Z,57.01
2017-09-27T09:49:48.844Z,56.87
2017-09-27T09:52:17.318Z,58.13
2017-09-27T09:54:45.668Z,58.75
2017-09-27T09:57:14.015Z,58.14
2017-09-27T09:59:42.359Z,56.83
2017-09-27T10:02:10.710Z,57.29
2017-09-27T10:04:39.079Z,57.01
2017-09-27T10:07:07.432Z,57.74
2017-09-27T10:09:35.779Z,57.82
2017-09-27T10:12:04.146Z,58.91
2017-09-27T10:14:32.500Z,58.30
2017-09-27T10:17:00.842Z,59.29
2017-09-27T10:19:29.233Z,60.72
2017-09-27T10:21:57.615Z,61.70
2017-09-27T10:24:25.965Z,61.83
2017-09-27T10:26:54.335Z,60.76
2017-09-27T10:29:22.674Z,58.71
2017-09-27T10:31:51.033Z,55.49
2017-09-27T10:34:19.509Z,54.46
2017-09-27T10:36:47.862Z,52.67
2017-09-27T10:39:16.208Z,51.04
2017-09-27T10:41:44.576Z,49.37
2017-09-27T10:44:12.920Z,47.53
2017-09-27T10:46:41.266Z,45.36
2017-09-27T10:49:09.610Z,46.48
2017-09-27T10:51:37.991Z,47.29
2017-09-27T10:54:06.390Z,51.33
2017-09-27T10:56:34.739Z,53.68
2017-09-27T10:59:03.090Z,54.11
2017-09-27T11:01:32.367Z,56.19
2017-09-27T11:04:00.808Z,56.68
2017-09-27T11:06:29.163Z,57.30
2017-09-27T11:08:57.519Z,57.31
2017-09-27T11:11:25.862Z,55.21
2017-09-27T11:13:54.214Z,51.96
2017-09-27T11:16:22.580Z,47.88
2017-09-27T11:18:50.934Z,45.72
2017-09-27T11:21:19.287Z,44.01
2017-09-27T11:23:47.672Z,44.85
2017-09-27T11:26:16.027Z,48.27
2017-09-27T11:28:44.417Z,50.95
2017-09-27T11:31:12.788Z,51.60
2017-09-27T11:33:41.163Z,52.81
2017-09-27T11:36:09.531Z,51.41
2017-09-27T11:38:37.886Z,50.65
2017-09-27T11:41:06.270Z,47.71
2017-09-27T11:43:34.635Z,46.25
2017-09-27T11:46:03.018Z,49.30
2017-09-27T11:48:31.370Z,51.45
2017-09-27T11:50:59.936Z,49.62
2017-09-27T11:53:28.302Z,47.67
2017-09-27T11:55:56.644Z,48.40
2017-09-27T11:58:24.990Z,50.10
2017-09-27T12:00:53.340Z,49.66
2017-09-27T12:03:21.712Z,52.29
2017-09-27T12:05:50.088Z,53.61
2017-09-27T12:08:18.474Z,52.85
2017-09-27T12:10:46.827Z,51.34
2017-09-27T12:13:15.220Z,48.57
2017-09-27T12:15:49.622Z,46.92
2017-09-27T12:18:18.001Z,48.28
2017-09-27T12:20:54.743Z,49.96
2017-09-27T12:23:23.236Z,50.03
2017-09-27T12:28:51.149Z,48.95
2017-09-27T12:31:20.961Z,48.85
2017-09-27T12:33:49.788Z,50.44
2017-09-27T12:36:19.588Z,52.07
2017-09-27T12:38:50.545Z,52.13
2017-09-27T12:44:14.608Z,51.62
2017-09-27T12:46:48.056Z,52.63
2017-09-27T12:49:18.050Z,53.25
2017-09-27T12:52:08.473Z,53.13
2017-09-27T13:00:56.231Z,50.92
2017-09-27T13:03:25.072Z,51.45
2017-09-27T13:05:54.798Z,52.24
2017-09-27T13:08:29.216Z,52.46
2017-09-27T13:10:58.114Z,53.19
2017-09-27T13:13:31.852Z,54.01
2017-09-27T13:16:19.145Z,54.66
2017-09-27T13:18:53.905Z,54.38
2017-09-27T13:21:26.686Z,54.23
2017-09-27T13:24:08.832Z,55.36
2017-09-27T13:26:37.926Z,56.61
2017-09-27T13:29:07.118Z,58.12
2017-09-27T13:31:39.090Z,61.98
2017-09-27T13:34:07.904Z,62.35
2017-09-27T13:36:37.102Z,61.49
2017-09-27T13:39:06.983Z,61.52
2017-09-27T13:41:36.459Z,61.28
2017-09-27T13:44:07.343Z,60.81
2017-09-27T13:46:38.750Z,61.06
2017-09-27T13:49:08.445Z,62.06
2017-09-27T13:51:36.902Z,62.73
2017-09-27T13:54:05.252Z,64.03
2017-09-27T13:56:33.598Z,64.94
2017-09-27T13:59:01.978Z,65.31
2017-09-27T14:01:30.359Z,65.07
2017-09-27T14:03:58.703Z,64.89
2017-09-27T14:06:27.058Z,64.80
2017-09-27T14:08:55.430Z,66.04
2017-09-27T14:11:23.774Z,65.54
2017-09-27T14:13:52.120Z,64.81
2017-09-27T14:16:20.599Z,65.00
2017-09-27T14:18:48.947Z,64.74
2017-09-27T14:21:17.295Z,64.39
2017-09-27T14:23:45.643Z,65.34
2017-09-27T14:26:13.986Z,65.06
2017-09-27T14:28:42.378Z,64.68
2017-09-27T14:31:10.727Z,64.77
2017-09-27T14:33:39.076Z,68.77
2017-09-27T14:36:07.515Z,64.09
2017-09-27T14:38:35.871Z,73.65
2017-09-27T14:41:04.347Z,72.22
2017-09-27T14:43:32.704Z,68.30
2017-09-27T14:46:01.051Z,68.98
2017-09-27T14:48:29.398Z,69.32
2017-09-27T14:50:57.744Z,67.01
2017-09-27T14:53:26.117Z,69.39
2017-09-27T14:55:54.468Z,78.90
2017-09-27T14:58:22.818Z,77.91
2017-09-27T15:00:51.175Z,75.79
2017-09-27T15:03:19.522Z,77.25
2017-09-27T15:05:47.895Z,78.00
2017-09-27T15:08:16.248Z,75.72
2017-09-27T15:10:44.626Z,72.07
2017-09-27T15:13:12.983Z,78.18
2017-09-27T15:15:41.344Z,81.96
2017-09-27T15:18:09.717Z,79.98
2017-09-27T15:20:38.059Z,83.43
2017-09-27T15:23:06.405Z,85.09
2017-09-27T15:25:34.750Z,85.19
2017-09-27T15:28:03.126Z,81.97
2017-09-27T15:30:31.508Z,82.73
2017-09-27T15:32:59.999Z,83.83
2017-09-27T15:35:28.334Z,81.51
2017-09-27T15:37:56.706Z,81.91
2017-09-27T15:40:25.057Z,80.64
2017-09-27T15:42:53.426Z,81.08
2017-09-27T15:45:21.906Z,82.16
2017-09-27T15:47:50.387Z,80.51
2017-09-27T15:50:18.732Z,79.93
2017-09-27T15:52:47.082Z,79.83
2017-09-27T15:55:15.429Z,78.48
2017-09-27T15:57:43.777Z,78.59
2017-09-27T16:00:12.422Z,78.90
2017-09-27T16:02:40.947Z,79.82
2017-09-27T16:05:09.298Z,81.41
2017-09-27T16:07:37.647Z,80.09
2017-09-27T16:10:06.903Z,79.47
2017-09-27T16:12:35.246Z,81.16
2017-09-27T16:15:03.601Z,81.40
2017-09-27T16:17:32.085Z,81.94
2017-09-27T16:20:00.443Z,81.09
2017-09-27T16:22:28.818Z,80.39
2017-09-27T16:24:57.171Z,81.16
2017-09-27T16:27:25.526Z,80.33
2017-09-27T16:29:54.064Z,80.62
2017-09-27T16:32:22.407Z,81.64
2017-09-27T16:34:50.847Z,81.15
2017-09-27T16:37:19.210Z,81.57
2017-09-27T16:39:47.626Z,82.32
2017-09-27T16:42:15.973Z,83.33
2017-09-27T16:44:44.315Z,82.79
2017-09-27T16:47:12.689Z,83.78
2017-09-27T16:49:41.043Z,84.46
2017-09-27T16:52:09.452Z,84.80
2017-09-27T16:54:37.799Z,84.71
2017-09-27T16:57:06.146Z,85.21
2017-09-27T16:59:35.922Z,86.06
2017-09-27T17:02:13.991Z,85.45
2017-09-27T17:04:44.220Z,86.17
2017-09-27T17:07:15.810Z,85.28
2017-09-27T17:09:45.324Z,85.93
2017-09-27T17:12:16.772Z,86.47
2017-09-27T17:14:47.614Z,87.06
2017-09-27T17:17:15.966Z,86.77
2017-09-27T17:19:44.313Z,86.68
2017-09-27T17:22:12.667Z,86.35
2017-09-27T17:24:41.037Z,86.79
2017-09-27T17:27:09.430Z,86.86
2017-09-27T17:29:37.806Z,87.31
2017-09-27T17:32:06.928Z,87.59
2017-09-27T17:34:35.339Z,87.69
2017-09-27T17:37:06.469Z,87.43
2017-09-27T17:39:35.430Z,87.81
2017-09-27T17:42:03.986Z,89.08
2017-09-27T17:44:32.561Z,89.21
2017-09-27T17:47:01.555Z,89.05
2017-09-27T17:49:30.039Z,88.89
2017-09-27T17:51:58.860Z,89.62
2017-09-27T17:54:28.119Z,89.84
2017-09-27T17:56:58.618Z,89.70
2017-09-27T17:59:26.999Z,89.41
2017-09-27T18:01:55.738Z,89.68
2017-09-27T18:10:13.440Z,89.94
2017-09-27T18:12:49.165Z,89.87
2017-09-27T18:18:22.015Z,90.32
2017-09-27T18:20:50.469Z,89.94
2017-09-27T18:23:18.863Z,89.63
2017-09-27T18:25:47.780Z,90.37
2017-09-27T18:28:16.128Z,90.78
2017-09-27T18:30:44.712Z,90.58
2017-09-27T18:33:13.066Z,90.92
2017-09-27T18:35:41.414Z,91.16
2017-09-27T18:38:09.766Z,91.23
2017-09-27T18:40:38.154Z,91.05
2017-09-27T18:43:06.756Z,91.86
2017-09-27T18:45:35.267Z,92.53
2017-09-27T18:48:03.642Z,93.02
2017-09-27T18:50:33.896Z,93.33
2017-09-27T18:53:02.263Z,93.13
2017-09-27T18:55:30.626Z,92.28
2017-09-27T18:57:58.969Z,92.21
2017-09-27T19:00:27.351Z,92.02
2017-09-27T19:02:55.699Z,92.21
2017-09-27T19:05:24.053Z,91.91
2017-09-27T19:07:52.415Z,91.84
2017-09-27T19:10:20.850Z,92.83
2017-09-27T19:12:49.551Z,92.01
2017-09-27T19:15:19.054Z,93.28
2017-09-27T19:17:47.565Z,93.56
2017-09-27T19:20:16.618Z,94.00
2017-09-27T19:22:45.061Z,93.83
2017-09-27T19:25:15.325Z,93.97
2017-09-27T19:27:44.078Z,94.82
2017-09-27T19:30:12.430Z,94.44
2017-09-27T19:32:41.007Z,94.73
2017-09-27T19:35:09.644Z,94.54
2017-09-27T19:37:38.066Z,93.75
2017-09-27T19:40:06.627Z,93.70
2017-09-27T19:42:34.978Z,93.64
2017-09-27T19:45:03.350Z,93.60
2017-09-27T19:47:31.715Z,93.68
2017-09-27T19:50:02.425Z,93.75
2017-09-27T19:52:30.901Z,93.57
2017-09-27T19:54:59.545Z,93.02
2017-09-27T19:57:27.992Z,93.58
2017-09-27T19:59:56.343Z,93.85
2017-09-27T20:02:24.719Z,93.55
2017-09-27T20:04:53.126Z,93.51
2017-09-27T20:07:21.483Z,94.72
2017-09-27T20:09:49.968Z,94.27
2017-09-27T20:12:18.330Z,94.94
2017-09-27T20:14:46.749Z,94.24
2017-09-27T20:17:15.157Z,94.55
2017-09-27T20:19:43.546Z,94.42
2017-09-27T20:22:11.940Z,94.63
2017-09-27T20:24:40.392Z,95.44
2017-09-27T20:27:08.789Z,95.31
2017-09-27T20:29:37.151Z,94.72
2017-09-27T20:32:05.541Z,95.00
2017-09-27T20:34:33.946Z,95.38
2017-09-27T20:37:02.463Z,94.89
2017-09-27T20:39:30.826Z,94.67
2017-09-27T20:41:59.176Z,94.93
2017-09-27T20:44:27.551Z,95.01
2017-09-27T20:46:56.094Z,95.28
2017-09-27T20:49:24.495Z,95.35
2017-09-27T20:51:52.877Z,95.14
2017-09-27T20:54:21.255Z,95.53
2017-09-27T20:56:49.608Z,95.64
2017-09-27T20:59:18.139Z,95.12
2017-09-27T21:01:46.531Z,94.68
2017-09-27T21:04:14.884Z,94.91
2017-09-27T21:06:43.225Z,94.86
2017-09-27T21:09:11.570Z,95.08
2017-09-27T21:11:39.942Z,95.37
2017-09-27T21:14:08.284Z,95.17
2017-09-27T21:16:36.623Z,94.90
2017-09-27T21:19:05.110Z,95.04
2017-09-27T21:21:33.510Z,94.61
2017-09-27T21:24:01.963Z,94.86
2017-09-27T21:26:30.314Z,94.89
2017-09-27T21:28:58.698Z,95.39
2017-09-27T21:31:27.035Z,95.17
2017-09-27T21:33:55.472Z,95.27
2017-09-27T21:36:23.847Z,96.20
2017-09-27T21:38:52.188Z,95.86
2017-09-27T21:41:20.586Z,96.05
2017-09-27T21:43:48.959Z,95.93
2017-09-27T21:46:17.337Z,95.92
2017-09-27T21:48:45.708Z,95.94
2017-09-27T21:51:14.054Z,95.62
2017-09-27T21:53:42.422Z,95.93
2017-09-27T21:56:10.766Z,95.91
2017-09-27T21:58:39.106Z,96.14
2017-09-27T22:01:07.448Z,96.06
2017-09-27T22:03:35.811Z,95.66
2017-09-27T22:06:04.154Z,95.59
2017-09-27T22:08:32.523Z,95.00
2017-09-27T22:11:00.943Z,95.51
2017-09-27T22:13:29.299Z,96.00
2017-09-27T22:15:57.643Z,95.68
2017-09-27T22:18:25.983Z,95.49
2017-09-27T22:20:54.322Z,95.79
2017-09-27T22:23:22.691Z,95.82
2017-09-27T22:25:51.057Z,96.24
2017-09-27T22:28:19.398Z,96.13
2017-09-27T22:30:47.766Z,96.42
2017-09-27T22:33:16.109Z,96.53
2017-09-27T22:35:44.446Z,96.41
2017-09-27T22:38:12.787Z,96.24
2017-09-27T22:40:41.138Z,96.06
2017-09-27T22:43:09.599Z,96.07
2017-09-27T22:45:37.939Z,95.98
2017-09-27T22:48:06.294Z,96.01
2017-09-27T22:50:34.703Z,96.37
2017-09-27T22:53:03.104Z,96.15
2017-09-27T22:55:31.493Z,96.16
2017-09-27T22:57:59.835Z,95.82
2017-09-27T23:00:28.245Z,95.57
2017-09-27T23:02:56.574Z,96.17
2017-09-27T23:05:24.918Z,96.21
2017-09-27T23:07:53.339Z,95.89
2017-09-27T23:10:21.693Z,96.37
2017-09-27T23:12:50.034Z,96.16
2017-09-27T23:15:18.374Z,96.31
2017-09-27T23:17:46.717Z,95.56
2017-09-27T23:20:15.055Z,96.65
2017-09-27T23:22:43.391Z,96.05
2017-09-27T23:25:11.758Z,95.69
2017-09-27T23:27:40.103Z,96.00
2017-09-27T23:30:08.487Z,96.58
2017-09-27T23:32:36.822Z,96.40
2017-09-27T23:35:05.167Z,96.00
2017-09-27T23:37:33.506Z,96.52
2017-09-27T23:40:01.851Z,96.37
2017-09-27T23:42:30.226Z,96.47
2017-09-27T23:44:58.558Z,96.29
2017-09-27T23:47:27.019Z,96.54
2017-09-27T23:49:55.354Z,96.41
2017-09-27T23:52:23.694Z,96.37
2017-09-27T23:54:52.060Z,96.37
2017-09-27T23:57:20.398Z,96.40
2017-09-27T23:59:48.771Z,96.61
